Главная страница
METAR-TAF:

METAR-TAF

Аэропорты :

Тулча, Румыния

широта: 45-11N, долгота: 028-49E, высота над уровнем моря: 4 м

Текущие метеонаблюдения

Эта сводка был подготовлена 25 минут назад, в 07:00 UTC
Ветер 11 Узел от восточно-юго-восточный
Температура 15°C
Влажность 77%
Давление 1014 hPa
Видимость 10 км и более
Нет облачности ниже 1500 м, и нет кучево-дождевой облачности

METAR: LRTC 290700Z 12011KT CAVOK 15/11 Q1014

Время: 10:25 (07:25 UTC)

Прогноз

Эта сводка был подготовлена 2 часа и 25 минут назад, в 05:00 UTC
Прогноз действительный с 29-го 06 UTC до 29-го 15 UTC
Ветер 12 Узел от юго-восточный
Видимость 10 км и более
Нет облачности ниже 1500 м, и нет кучево-дождевой облачности

TAF: LRTC 290500Z 2906/2915 14012KT CAVOK

Метеонаблюдения и прогнозы для более 4000 аэропортов (сводки METAR и TAF).

Имеющиеся станции представлены на карте желтыми и красными точками.

Чтобы увидеть название станции, наведите на нее мышь.

Затем щелкните, чтобы увидеть метеонаблюдения и метеопрогнозы.

Управление картой: чтобы увеличить масштаб, щелкните зеленые кнопки с черным крестиком; чтобы уменьшить масштаб, щелкните зеленую кнопку с тире; для просмотра соседних карт щелкайте зеленые стрелки.


METAR-TAF: